sensor_id;sensor_type;location;lat;lon;timestamp;P1;durP1;ratioP1;P2;durP2;ratioP2
56477;SDS011;42382;53.210;5.772;2022-10-04T00:01:47;14.30;;;6.68;;
56477;SDS011;42382;53.210;5.772;2022-10-04T00:07:05;16.08;;;7.57;;
56477;SDS011;42382;53.210;5.772;2022-10-04T00:09:54;17.20;;;8.32;;
56477;SDS011;42382;53.210;5.772;2022-10-04T00:12:25;20.45;;;8.30;;
56477;SDS011;42382;53.210;5.772;2022-10-04T00:14:54;17.60;;;7.70;;
56477;SDS011;42382;53.210;5.772;2022-10-04T00:17:27;21.38;;;8.15;;
56477;SDS011;42382;53.210;5.772;2022-10-04T00:19:56;21.38;;;8.93;;
56477;SDS011;42382;53.210;5.772;2022-10-04T00:22:31;19.90;;;8.63;;
56477;SDS011;42382;53.210;5.772;2022-10-04T00:27:32;20.20;;;8.93;;
56477;SDS011;42382;53.210;5.772;2022-10-04T00:34:57;17.05;;;8.38;;
56477;SDS011;42382;53.210;5.772;2022-10-04T00:37:23;16.30;;;7.72;;
56477;SDS011;42382;53.210;5.772;2022-10-04T00:39:58;22.05;;;9.23;;
56477;SDS011;42382;53.210;5.772;2022-10-04T00:45:40;15.80;;;8.07;;
56477;SDS011;42382;53.210;5.772;2022-10-04T00:56:18;22.48;;;9.20;;
56477;SDS011;42382;53.210;5.772;2022-10-04T01:01:25;19.52;;;8.68;;
56477;SDS011;42382;53.210;5.772;2022-10-04T01:03:53;15.55;;;7.85;;
56477;SDS011;42382;53.210;5.772;2022-10-04T01:06:21;17.80;;;8.07;;
56477;SDS011;42382;53.210;5.772;2022-10-04T01:08:56;17.52;;;8.02;;
56477;SDS011;42382;53.210;5.772;2022-10-04T01:11:29;17.77;;;8.13;;
56477;SDS011;42382;53.210;5.772;2022-10-04T01:16:50;18.23;;;8.00;;
56477;SDS011;42382;53.210;5.772;2022-10-04T01:21:58;17.50;;;8.35;;
56477;SDS011;42382;53.210;5.772;2022-10-04T01:24:38;16.73;;;7.40;;
56477;SDS011;42382;53.210;5.772;2022-10-04T01:27:29;17.10;;;8.18;;
56477;SDS011;42382;53.210;5.772;2022-10-04T01:30:03;16.17;;;7.57;;
56477;SDS011;42382;53.210;5.772;2022-10-04T01:32:33;17.65;;;7.18;;
56477;SDS011;42382;53.210;5.772;2022-10-04T01:34:59;19.40;;;8.50;;
56477;SDS011;42382;53.210;5.772;2022-10-04T01:37:25;16.90;;;7.07;;
56477;SDS011;42382;53.210;5.772;2022-10-04T01:39:50;15.40;;;7.35;;
56477;SDS011;42382;53.210;5.772;2022-10-04T01:42:24;24.48;;;8.70;;
56477;SDS011;42382;53.210;5.772;2022-10-04T01:45:02;17.08;;;8.38;;
56477;SDS011;42382;53.210;5.772;2022-10-04T01:47:35;17.98;;;8.15;;
56477;SDS011;42382;53.210;5.772;2022-10-04T01:50:14;19.88;;;8.20;;
56477;SDS011;42382;53.210;5.772;2022-10-04T01:52:49;18.58;;;8.40;;
56477;SDS011;42382;53.210;5.772;2022-10-04T01:55:19;15.70;;;8.75;;
56477;SDS011;42382;53.210;5.772;2022-10-04T01:57:56;15.45;;;8.02;;
56477;SDS011;42382;53.210;5.772;2022-10-04T02:00:48;18.10;;;7.95;;
56477;SDS011;42382;53.210;5.772;2022-10-04T02:03:34;19.77;;;8.05;;
56477;SDS011;42382;53.210;5.772;2022-10-04T02:06:06;22.60;;;9.32;;
56477;SDS011;42382;53.210;5.772;2022-10-04T02:08:34;18.02;;;8.35;;
56477;SDS011;42382;53.210;5.772;2022-10-04T02:11:03;17.92;;;8.32;;
56477;SDS011;42382;53.210;5.772;2022-10-04T02:13:34;17.35;;;8.60;;
56477;SDS011;42382;53.210;5.772;2022-10-04T02:16:02;21.92;;;8.63;;
56477;SDS011;42382;53.210;5.772;2022-10-04T02:18:32;18.40;;;8.18;;
56477;SDS011;42382;53.210;5.772;2022-10-04T02:21:06;21.35;;;9.63;;
56477;SDS011;42382;53.210;5.772;2022-10-04T02:23:32;22.02;;;9.88;;
56477;SDS011;42382;53.210;5.772;2022-10-04T02:26:07;21.52;;;9.40;;
56477;SDS011;42382;53.210;5.772;2022-10-04T02:28:34;20.25;;;9.50;;
56477;SDS011;42382;53.210;5.772;2022-10-04T02:31:00;21.30;;;8.57;;
56477;SDS011;42382;53.210;5.772;2022-10-04T02:33:47;17.58;;;8.20;;
56477;SDS011;42382;53.210;5.772;2022-10-04T02:36:14;17.98;;;8.80;;
56477;SDS011;42382;53.210;5.772;2022-10-04T02:38:43;16.15;;;8.90;;
56477;SDS011;42382;53.210;5.772;2022-10-04T02:41:39;20.98;;;9.32;;
56477;SDS011;42382;53.210;5.772;2022-10-04T02:44:13;18.55;;;8.45;;
56477;SDS011;42382;53.210;5.772;2022-10-04T02:46:53;18.27;;;8.20;;
56477;SDS011;42382;53.210;5.772;2022-10-04T02:49:41;14.55;;;8.25;;
56477;SDS011;42382;53.210;5.772;2022-10-04T02:52:37;16.08;;;7.72;;
56477;SDS011;42382;53.210;5.772;2022-10-04T02:55:15;17.55;;;8.45;;
56477;SDS011;42382;53.210;5.772;2022-10-04T02:57:54;20.55;;;9.82;;
56477;SDS011;42382;53.210;5.772;2022-10-04T03:00:21;17.45;;;8.63;;
56477;SDS011;42382;53.210;5.772;2022-10-04T03:05:53;17.88;;;9.13;;
56477;SDS011;42382;53.210;5.772;2022-10-04T03:08:53;17.38;;;9.20;;
56477;SDS011;42382;53.210;5.772;2022-10-04T03:11:28;17.70;;;9.95;;
56477;SDS011;42382;53.210;5.772;2022-10-04T03:13:58;23.48;;;9.90;;
56477;SDS011;42382;53.210;5.772;2022-10-04T03:16:26;13.40;;;8.57;;
56477;SDS011;42382;53.210;5.772;2022-10-04T03:19:01;21.17;;;10.47;;
56477;SDS011;42382;53.210;5.772;2022-10-04T03:21:27;24.85;;;11.00;;
56477;SDS011;42382;53.210;5.772;2022-10-04T03:23:55;19.95;;;8.93;;
56477;SDS011;42382;53.210;5.772;2022-10-04T03:26:37;19.10;;;8.82;;
56477;SDS011;42382;53.210;5.772;2022-10-04T03:29:17;17.80;;;8.80;;
56477;SDS011;42382;53.210;5.772;2022-10-04T03:31:47;22.08;;;10.38;;
56477;SDS011;42382;53.210;5.772;2022-10-04T03:34:15;24.75;;;11.27;;
56477;SDS011;42382;53.210;5.772;2022-10-04T03:36:55;18.90;;;10.00;;
56477;SDS011;42382;53.210;5.772;2022-10-04T03:39:33;21.23;;;11.23;;
56477;SDS011;42382;53.210;5.772;2022-10-04T03:42:04;19.58;;;10.30;;
56477;SDS011;42382;53.210;5.772;2022-10-04T03:44:34;22.80;;;10.13;;
56477;SDS011;42382;53.210;5.772;2022-10-04T03:47:01;23.95;;;10.40;;
56477;SDS011;42382;53.210;5.772;2022-10-04T03:49:36;20.17;;;11.45;;
56477;SDS011;42382;53.210;5.772;2022-10-04T03:52:04;22.85;;;10.13;;
56477;SDS011;42382;53.210;5.772;2022-10-04T03:54:37;19.65;;;9.82;;
56477;SDS011;42382;53.210;5.772;2022-10-04T03:57:02;21.13;;;11.05;;
56477;SDS011;42382;53.210;5.772;2022-10-04T03:59:30;20.50;;;10.10;;
56477;SDS011;42382;53.210;5.772;2022-10-04T04:04:41;24.13;;;11.38;;
56477;SDS011;42382;53.210;5.772;2022-10-04T04:07:19;21.95;;;10.55;;
56477;SDS011;42382;53.210;5.772;2022-10-04T04:12:42;18.60;;;10.63;;
56477;SDS011;42382;53.210;5.772;2022-10-04T04:15:13;22.77;;;11.18;;
56477;SDS011;42382;53.210;5.772;2022-10-04T04:17:47;21.17;;;10.95;;
56477;SDS011;42382;53.210;5.772;2022-10-04T04:20:18;26.35;;;11.95;;
56477;SDS011;42382;53.210;5.772;2022-10-04T04:23:03;20.70;;;11.70;;
56477;SDS011;42382;53.210;5.772;2022-10-04T04:25:38;20.73;;;11.98;;
56477;SDS011;42382;53.210;5.772;2022-10-04T04:28:17;24.02;;;11.75;;
56477;SDS011;42382;53.210;5.772;2022-10-04T04:30:51;29.45;;;11.63;;
56477;SDS011;42382;53.210;5.772;2022-10-04T04:33:24;25.20;;;12.63;;
56477;SDS011;42382;53.210;5.772;2022-10-04T04:35:54;24.48;;;11.75;;
56477;SDS011;42382;53.210;5.772;2022-10-04T04:38:26;22.00;;;13.02;;
56477;SDS011;42382;53.210;5.772;2022-10-04T04:40:52;29.35;;;13.23;;
56477;SDS011;42382;53.210;5.772;2022-10-04T04:43:23;21.02;;;11.52;;
56477;SDS011;42382;53.210;5.772;2022-10-04T04:45:51;30.27;;;13.65;;
56477;SDS011;42382;53.210;5.772;2022-10-04T04:48:17;26.70;;;13.43;;
56477;SDS011;42382;53.210;5.772;2022-10-04T04:50:52;30.48;;;13.73;;
56477;SDS011;42382;53.210;5.772;2022-10-04T04:53:26;22.15;;;12.68;;
56477;SDS011;42382;53.210;5.772;2022-10-04T04:58:25;25.05;;;14.80;;
56477;SDS011;42382;53.210;5.772;2022-10-04T05:01:18;22.45;;;12.32;;
56477;SDS011;42382;53.210;5.772;2022-10-04T05:03:58;20.23;;;13.63;;
56477;SDS011;42382;53.210;5.772;2022-10-04T05:06:29;24.65;;;14.45;;
56477;SDS011;42382;53.210;5.772;2022-10-04T05:08:55;27.30;;;13.13;;
56477;SDS011;42382;53.210;5.772;2022-10-04T05:11:21;29.40;;;14.70;;
56477;SDS011;42382;53.210;5.772;2022-10-04T05:17:13;22.95;;;13.40;;
56477;SDS011;42382;53.210;5.772;2022-10-04T05:19:31;22.83;;;13.48;;
56477;SDS011;42382;53.210;5.772;2022-10-04T05:22:10;21.13;;;13.43;;
56477;SDS011;42382;53.210;5.772;2022-10-04T05:24:42;25.13;;;15.15;;
56477;SDS011;42382;53.210;5.772;2022-10-04T05:27:14;27.15;;;13.38;;
56477;SDS011;42382;53.210;5.772;2022-10-04T05:35:26;29.83;;;14.57;;
56477;SDS011;42382;53.210;5.772;2022-10-04T05:41:29;22.00;;;14.50;;
56477;SDS011;42382;53.210;5.772;2022-10-04T05:43:31;33.53;;;14.43;;
56477;SDS011;42382;53.210;5.772;2022-10-04T05:46:43;24.42;;;14.00;;
56477;SDS011;42382;53.210;5.772;2022-10-04T05:48:55;25.08;;;14.50;;
56477;SDS011;42382;53.210;5.772;2022-10-04T05:51:29;25.10;;;14.30;;
56477;SDS011;42382;53.210;5.772;2022-10-04T05:54:01;21.55;;;14.15;;
56477;SDS011;42382;53.210;5.772;2022-10-04T05:56:46;26.15;;;15.18;;
56477;SDS011;42382;53.210;5.772;2022-10-04T05:59:37;21.23;;;13.63;;
56477;SDS011;42382;53.210;5.772;2022-10-04T06:10:42;24.30;;;14.05;;
56477;SDS011;42382;53.210;5.772;2022-10-04T06:13:21;26.10;;;14.43;;
56477;SDS011;42382;53.210;5.772;2022-10-04T06:19:23;27.80;;;15.00;;
56477;SDS011;42382;53.210;5.772;2022-10-04T06:22:10;27.20;;;14.48;;
56477;SDS011;42382;53.210;5.772;2022-10-04T06:24:41;22.83;;;14.73;;
56477;SDS011;42382;53.210;5.772;2022-10-04T06:27:13;27.08;;;15.27;;
56477;SDS011;42382;53.210;5.772;2022-10-04T06:29:49;22.20;;;14.15;;
56477;SDS011;42382;53.210;5.772;2022-10-04T06:32:26;24.80;;;14.35;;
56477;SDS011;42382;53.210;5.772;2022-10-04T06:35:02;26.80;;;15.98;;
56477;SDS011;42382;53.210;5.772;2022-10-04T06:43:25;27.88;;;16.17;;
56477;SDS011;42382;53.210;5.772;2022-10-04T06:46:06;24.63;;;14.90;;
56477;SDS011;42382;53.210;5.772;2022-10-04T06:59:52;28.55;;;16.10;;
56477;SDS011;42382;53.210;5.772;2022-10-04T07:02:21;28.80;;;16.40;;
56477;SDS011;42382;53.210;5.772;2022-10-04T07:07:30;25.17;;;15.13;;
56477;SDS011;42382;53.210;5.772;2022-10-04T07:15:41;22.58;;;14.10;;
56477;SDS011;42382;53.210;5.772;2022-10-04T07:18:26;24.50;;;14.82;;
56477;SDS011;42382;53.210;5.772;2022-10-04T07:21:02;28.30;;;15.10;;
56477;SDS011;42382;53.210;5.772;2022-10-04T07:23:38;21.40;;;13.10;;
56477;SDS011;42382;53.210;5.772;2022-10-04T07:26:33;20.80;;;12.95;;
56477;SDS011;42382;53.210;5.772;2022-10-04T07:29:32;21.38;;;14.00;;
56477;SDS011;42382;53.210;5.772;2022-10-04T07:34:39;19.60;;;13.20;;
56477;SDS011;42382;53.210;5.772;2022-10-04T07:37:11;29.60;;;13.60;;
56477;SDS011;42382;53.210;5.772;2022-10-04T07:39:46;24.75;;;13.20;;
56477;SDS011;42382;53.210;5.772;2022-10-04T07:42:34;21.50;;;12.65;;
56477;SDS011;42382;53.210;5.772;2022-10-04T07:48:00;23.13;;;13.98;;
56477;SDS011;42382;53.210;5.772;2022-10-04T07:50:29;23.55;;;14.00;;
56477;SDS011;42382;53.210;5.772;2022-10-04T07:53:07;22.83;;;14.02;;
56477;SDS011;42382;53.210;5.772;2022-10-04T07:55:48;32.25;;;14.93;;
56477;SDS011;42382;53.210;5.772;2022-10-04T07:58:23;23.27;;;13.25;;
56477;SDS011;42382;53.210;5.772;2022-10-04T08:07:02;24.17;;;14.02;;
56477;SDS011;42382;53.210;5.772;2022-10-04T08:12:51;22.73;;;13.10;;
56477;SDS011;42382;53.210;5.772;2022-10-04T08:15:36;22.63;;;13.43;;
56477;SDS011;42382;53.210;5.772;2022-10-04T08:20:56;19.33;;;12.35;;
56477;SDS011;42382;53.210;5.772;2022-10-04T08:34:58;24.30;;;13.95;;
56477;SDS011;42382;53.210;5.772;2022-10-04T08:57:45;16.58;;;12.23;;
56477;SDS011;42382;53.210;5.772;2022-10-04T09:03:25;21.33;;;13.30;;
56477;SDS011;42382;53.210;5.772;2022-10-04T09:06:24;18.35;;;13.45;;
56477;SDS011;42382;53.210;5.772;2022-10-04T09:26:42;24.10;;;12.98;;
56477;SDS011;42382;53.210;5.772;2022-10-04T09:32:18;20.63;;;13.77;;
56477;SDS011;42382;53.210;5.772;2022-10-04T09:45:58;18.45;;;11.00;;
56477;SDS011;42382;53.210;5.772;2022-10-04T09:53:57;20.75;;;13.13;;
56477;SDS011;42382;53.210;5.772;2022-10-04T10:14:02;17.75;;;10.32;;
56477;SDS011;42382;53.210;5.772;2022-10-04T10:22:46;18.17;;;11.57;;
56477;SDS011;42382;53.210;5.772;2022-10-04T10:28:11;14.23;;;9.15;;
56477;SDS011;42382;53.210;5.772;2022-10-04T10:31:01;15.23;;;10.95;;
56477;SDS011;42382;53.210;5.772;2022-10-04T10:45:18;17.50;;;11.23;;
56477;SDS011;42382;53.210;5.772;2022-10-04T11:05:55;14.60;;;10.63;;
56477;SDS011;42382;53.210;5.772;2022-10-04T11:08:44;15.38;;;9.80;;
56477;SDS011;42382;53.210;5.772;2022-10-04T11:17:21;17.45;;;10.65;;
56477;SDS011;42382;53.210;5.772;2022-10-04T11:25:25;13.27;;;9.40;;
56477;SDS011;42382;53.210;5.772;2022-10-04T11:28:10;11.88;;;9.23;;
56477;SDS011;42382;53.210;5.772;2022-10-04T11:36:26;15.27;;;9.38;;
56477;SDS011;42382;53.210;5.772;2022-10-04T11:39:11;12.55;;;10.13;;
56477;SDS011;42382;53.210;5.772;2022-10-04T11:47:21;15.52;;;10.32;;
56477;SDS011;42382;53.210;5.772;2022-10-04T11:53:23;17.15;;;10.43;;
56477;SDS011;42382;53.210;5.772;2022-10-04T11:56:20;15.60;;;10.45;;
56477;SDS011;42382;53.210;5.772;2022-10-04T11:59:11;12.88;;;8.07;;
56477;SDS011;42382;53.210;5.772;2022-10-04T12:07:26;14.32;;;8.60;;
56477;SDS011;42382;53.210;5.772;2022-10-04T12:10:19;17.95;;;9.85;;
56477;SDS011;42382;53.210;5.772;2022-10-04T12:13:22;12.80;;;8.48;;
56477;SDS011;42382;53.210;5.772;2022-10-04T12:24:36;13.13;;;8.75;;
56477;SDS011;42382;53.210;5.772;2022-10-04T12:30:26;15.40;;;8.23;;
56477;SDS011;42382;53.210;5.772;2022-10-04T12:38:35;12.63;;;7.97;;
56477;SDS011;42382;53.210;5.772;2022-10-04T12:49:24;11.38;;;7.13;;
56477;SDS011;42382;53.210;5.772;2022-10-04T12:51:56;11.90;;;6.65;;
56477;SDS011;42382;53.210;5.772;2022-10-04T12:54:44;14.82;;;7.13;;
56477;SDS011;42382;53.210;5.772;2022-10-04T13:19:06;10.67;;;6.30;;
56477;SDS011;42382;53.210;5.772;2022-10-04T13:24:23;15.35;;;6.35;;
56477;SDS011;42382;53.210;5.772;2022-10-04T13:27:16;14.05;;;6.35;;
56477;SDS011;42382;53.210;5.772;2022-10-04T13:35:33;9.80;;;6.15;;
56477;SDS011;42382;53.210;5.772;2022-10-04T13:44:05;12.45;;;5.53;;
56477;SDS011;42382;53.210;5.772;2022-10-04T13:46:42;10.13;;;5.97;;
56477;SDS011;42382;53.210;5.772;2022-10-04T14:30:23;11.13;;;5.00;;
56477;SDS011;42382;53.210;5.772;2022-10-04T14:35:42;5.88;;;3.40;;
56477;SDS011;42382;53.210;5.772;2022-10-04T14:41:41;8.63;;;3.60;;
56477;SDS011;42382;53.210;5.772;2022-10-04T14:58:30;6.45;;;3.33;;
56477;SDS011;42382;53.210;5.772;2022-10-04T15:01:22;5.10;;;3.10;;
56477;SDS011;42382;53.210;5.772;2022-10-04T15:06:37;4.35;;;3.30;;
56477;SDS011;42382;53.210;5.772;2022-10-04T15:17:25;8.68;;;2.90;;
56477;SDS011;42382;53.210;5.772;2022-10-04T15:20:05;6.32;;;3.08;;
56477;SDS011;42382;53.210;5.772;2022-10-04T15:22:42;7.63;;;2.92;;
56477;SDS011;42382;53.210;5.772;2022-10-04T15:34:05;5.55;;;3.08;;
56477;SDS011;42382;53.210;5.772;2022-10-04T15:42:37;7.13;;;3.25;;
56477;SDS011;42382;53.210;5.772;2022-10-04T15:54:03;10.35;;;3.75;;
56477;SDS011;42382;53.210;5.772;2022-10-04T15:59:35;8.32;;;3.45;;
56477;SDS011;42382;53.210;5.772;2022-10-04T16:05:11;10.05;;;4.90;;
56477;SDS011;42382;53.210;5.772;2022-10-04T16:10:51;6.30;;;3.95;;
56477;SDS011;42382;53.210;5.772;2022-10-04T16:13:31;9.35;;;4.65;;
56477;SDS011;42382;53.210;5.772;2022-10-04T16:31:49;12.55;;;5.43;;
56477;SDS011;42382;53.210;5.772;2022-10-04T16:48:11;11.95;;;5.72;;
56477;SDS011;42382;53.210;5.772;2022-10-04T16:56:28;13.10;;;5.85;;
56477;SDS011;42382;53.210;5.772;2022-10-04T16:59:04;11.95;;;6.22;;
56477;SDS011;42382;53.210;5.772;2022-10-04T17:01:41;8.05;;;5.68;;
56477;SDS011;42382;53.210;5.772;2022-10-04T17:04:29;12.20;;;5.72;;
56477;SDS011;42382;53.210;5.772;2022-10-04T17:22:58;10.18;;;6.97;;
56477;SDS011;42382;53.210;5.772;2022-10-04T17:37:10;12.95;;;7.35;;
56477;SDS011;42382;53.210;5.772;2022-10-04T17:42:33;10.98;;;6.57;;
56477;SDS011;42382;53.210;5.772;2022-10-04T17:47:51;12.10;;;7.45;;
56477;SDS011;42382;53.210;5.772;2022-10-04T17:50:41;12.18;;;6.30;;
56477;SDS011;42382;53.210;5.772;2022-10-04T17:53:54;15.15;;;6.63;;
56477;SDS011;42382;53.210;5.772;2022-10-04T17:56:45;10.73;;;6.65;;
56477;SDS011;42382;53.210;5.772;2022-10-04T17:59:40;12.35;;;6.82;;
56477;SDS011;42382;53.210;5.772;2022-10-04T18:02:16;12.07;;;6.43;;
56477;SDS011;42382;53.210;5.772;2022-10-04T18:08:01;11.68;;;6.43;;
56477;SDS011;42382;53.210;5.772;2022-10-04T18:10:37;9.93;;;6.55;;
56477;SDS011;42382;53.210;5.772;2022-10-04T18:13:12;9.98;;;6.50;;
56477;SDS011;42382;53.210;5.772;2022-10-04T18:15:48;10.70;;;6.43;;
56477;SDS011;42382;53.210;5.772;2022-10-04T18:18:19;11.38;;;6.78;;
56477;SDS011;42382;53.210;5.772;2022-10-04T18:23:23;15.98;;;7.75;;
56477;SDS011;42382;53.210;5.772;2022-10-04T18:25:53;12.30;;;7.38;;
56477;SDS011;42382;53.210;5.772;2022-10-04T18:28:23;12.90;;;7.53;;
56477;SDS011;42382;53.210;5.772;2022-10-04T18:30:56;11.48;;;7.30;;
56477;SDS011;42382;53.210;5.772;2022-10-04T18:33:43;8.68;;;6.15;;
56477;SDS011;42382;53.210;5.772;2022-10-04T18:36:17;10.57;;;6.85;;
56477;SDS011;42382;53.210;5.772;2022-10-04T18:41:31;11.60;;;7.85;;
56477;SDS011;42382;53.210;5.772;2022-10-04T18:47:11;11.88;;;6.60;;
56477;SDS011;42382;53.210;5.772;2022-10-04T18:49:51;9.88;;;6.75;;
56477;SDS011;42382;53.210;5.772;2022-10-04T18:52:31;13.32;;;8.43;;
56477;SDS011;42382;53.210;5.772;2022-10-04T19:01:18;14.25;;;8.02;;
56477;SDS011;42382;53.210;5.772;2022-10-04T19:04:13;10.00;;;6.88;;
56477;SDS011;42382;53.210;5.772;2022-10-04T19:06:45;8.30;;;6.07;;
56477;SDS011;42382;53.210;5.772;2022-10-04T19:09:30;9.82;;;6.38;;
56477;SDS011;42382;53.210;5.772;2022-10-04T19:12:16;10.20;;;6.13;;
56477;SDS011;42382;53.210;5.772;2022-10-04T19:15:09;12.20;;;6.03;;
56477;SDS011;42382;53.210;5.772;2022-10-04T19:28:26;6.72;;;4.20;;
56477;SDS011;42382;53.210;5.772;2022-10-04T19:33:40;6.43;;;4.30;;
56477;SDS011;42382;53.210;5.772;2022-10-04T19:38:59;6.25;;;2.35;;
56477;SDS011;42382;53.210;5.772;2022-10-04T19:41:43;10.55;;;2.40;;
56477;SDS011;42382;53.210;5.772;2022-10-04T19:47:15;5.70;;;1.75;;
56477;SDS011;42382;53.210;5.772;2022-10-04T19:52:41;10.20;;;2.33;;
56477;SDS011;42382;53.210;5.772;2022-10-04T19:55:17;13.73;;;3.55;;
56477;SDS011;42382;53.210;5.772;2022-10-04T19:58:41;7.30;;;3.47;;
56477;SDS011;42382;53.210;5.772;2022-10-04T20:00:57;8.65;;;2.63;;
56477;SDS011;42382;53.210;5.772;2022-10-04T20:03:23;8.70;;;3.75;;
56477;SDS011;42382;53.210;5.772;2022-10-04T20:05:52;8.55;;;3.88;;
56477;SDS011;42382;53.210;5.772;2022-10-04T20:14:41;6.85;;;3.78;;
56477;SDS011;42382;53.210;5.772;2022-10-04T20:19:19;9.05;;;4.40;;
56477;SDS011;42382;53.210;5.772;2022-10-04T20:21:51;7.47;;;4.68;;
56477;SDS011;42382;53.210;5.772;2022-10-04T20:24:47;12.43;;;5.82;;
56477;SDS011;42382;53.210;5.772;2022-10-04T20:27:05;8.13;;;4.60;;
56477;SDS011;42382;53.210;5.772;2022-10-04T20:29:59;10.30;;;6.18;;
56477;SDS011;42382;53.210;5.772;2022-10-04T20:34:58;11.65;;;6.95;;
56477;SDS011;42382;53.210;5.772;2022-10-04T20:40:54;11.48;;;6.70;;
56477;SDS011;42382;53.210;5.772;2022-10-04T20:45:44;17.50;;;9.98;;
56477;SDS011;42382;53.210;5.772;2022-10-04T20:48:24;11.48;;;7.32;;
56477;SDS011;42382;53.210;5.772;2022-10-04T20:50:51;17.23;;;6.68;;
56477;SDS011;42382;53.210;5.772;2022-10-04T20:53:21;12.27;;;6.55;;
56477;SDS011;42382;53.210;5.772;2022-10-04T20:55:51;8.43;;;5.50;;
56477;SDS011;42382;53.210;5.772;2022-10-04T20:58:38;12.00;;;5.72;;
56477;SDS011;42382;53.210;5.772;2022-10-04T21:01:15;11.30;;;5.70;;
56477;SDS011;42382;53.210;5.772;2022-10-04T21:06:55;11.32;;;6.50;;
56477;SDS011;42382;53.210;5.772;2022-10-04T21:09:22;12.15;;;6.82;;
56477;SDS011;42382;53.210;5.772;2022-10-04T21:11:49;10.40;;;6.18;;
56477;SDS011;42382;53.210;5.772;2022-10-04T21:14:26;12.95;;;7.30;;
56477;SDS011;42382;53.210;5.772;2022-10-04T21:16:54;17.48;;;7.65;;
56477;SDS011;42382;53.210;5.772;2022-10-04T21:22:08;12.98;;;7.65;;
56477;SDS011;42382;53.210;5.772;2022-10-04T21:27:25;15.37;;;9.17;;
56477;SDS011;42382;53.210;5.772;2022-10-04T21:29:53;10.95;;;8.80;;
56477;SDS011;42382;53.210;5.772;2022-10-04T21:32:20;12.43;;;9.00;;
56477;SDS011;42382;53.210;5.772;2022-10-04T21:34:46;13.82;;;9.55;;
56477;SDS011;42382;53.210;5.772;2022-10-04T21:37:12;14.10;;;9.57;;
56477;SDS011;42382;53.210;5.772;2022-10-04T21:39:37;12.80;;;9.20;;
56477;SDS011;42382;53.210;5.772;2022-10-04T21:42:03;14.90;;;9.63;;
56477;SDS011;42382;53.210;5.772;2022-10-04T21:44:29;12.05;;;9.13;;
56477;SDS011;42382;53.210;5.772;2022-10-04T21:46:55;14.00;;;9.43;;
56477;SDS011;42382;53.210;5.772;2022-10-04T21:49:20;13.05;;;9.50;;
56477;SDS011;42382;53.210;5.772;2022-10-04T21:51:46;12.48;;;8.18;;
56477;SDS011;42382;53.210;5.772;2022-10-04T21:54:11;10.77;;;8.13;;
56477;SDS011;42382;53.210;5.772;2022-10-04T21:56:37;12.65;;;7.93;;
56477;SDS011;42382;53.210;5.772;2022-10-04T21:59:03;13.23;;;8.02;;
56477;SDS011;42382;53.210;5.772;2022-10-04T22:01:29;10.00;;;6.70;;
56477;SDS011;42382;53.210;5.772;2022-10-04T22:03:54;11.77;;;7.28;;
56477;SDS011;42382;53.210;5.772;2022-10-04T22:06:20;8.52;;;5.85;;
56477;SDS011;42382;53.210;5.772;2022-10-04T22:08:45;14.82;;;6.45;;
56477;SDS011;42382;53.210;5.772;2022-10-04T22:11:11;10.43;;;6.15;;
56477;SDS011;42382;53.210;5.772;2022-10-04T22:13:37;10.20;;;5.63;;
56477;SDS011;42382;53.210;5.772;2022-10-04T22:16:03;18.88;;;6.07;;
56477;SDS011;42382;53.210;5.772;2022-10-04T22:18:29;10.60;;;5.53;;
56477;SDS011;42382;53.210;5.772;2022-10-04T22:20:55;10.43;;;4.63;;
56477;SDS011;42382;53.210;5.772;2022-10-04T22:23:22;8.07;;;3.70;;
56477;SDS011;42382;53.210;5.772;2022-10-04T22:25:49;8.57;;;4.75;;
56477;SDS011;42382;53.210;5.772;2022-10-04T22:35:48;11.05;;;5.22;;
56477;SDS011;42382;53.210;5.772;2022-10-04T22:38:13;11.50;;;5.40;;
56477;SDS011;42382;53.210;5.772;2022-10-04T22:40:39;8.02;;;5.10;;
56477;SDS011;42382;53.210;5.772;2022-10-04T22:43:09;9.63;;;5.43;;
56477;SDS011;42382;53.210;5.772;2022-10-04T22:45:37;9.02;;;5.75;;
56477;SDS011;42382;53.210;5.772;2022-10-04T22:48:06;7.32;;;5.30;;
56477;SDS011;42382;53.210;5.772;2022-10-04T22:50:37;11.73;;;5.30;;
56477;SDS011;42382;53.210;5.772;2022-10-04T22:53:11;8.32;;;4.85;;
56477;SDS011;42382;53.210;5.772;2022-10-04T22:55:40;11.65;;;5.22;;
56477;SDS011;42382;53.210;5.772;2022-10-04T22:58:07;7.43;;;4.35;;
56477;SDS011;42382;53.210;5.772;2022-10-04T23:00:44;6.95;;;4.65;;
56477;SDS011;42382;53.210;5.772;2022-10-04T23:03:31;7.50;;;5.13;;
56477;SDS011;42382;53.210;5.772;2022-10-04T23:05:58;7.80;;;4.47;;
56477;SDS011;42382;53.210;5.772;2022-10-04T23:08:25;9.25;;;5.35;;
56477;SDS011;42382;53.210;5.772;2022-10-04T23:10:52;6.22;;;4.55;;
56477;SDS011;42382;53.210;5.772;2022-10-04T23:13:21;8.98;;;4.38;;
56477;SDS011;42382;53.210;5.772;2022-10-04T23:15:47;11.98;;;4.45;;
56477;SDS011;42382;53.210;5.772;2022-10-04T23:18:13;6.38;;;3.42;;
56477;SDS011;42382;53.210;5.772;2022-10-04T23:20:40;5.15;;;3.78;;
56477;SDS011;42382;53.210;5.772;2022-10-04T23:23:13;7.18;;;4.30;;
56477;SDS011;42382;53.210;5.772;2022-10-04T23:25:45;4.38;;;3.88;;
56477;SDS011;42382;53.210;5.772;2022-10-04T23:28:13;4.50;;;3.50;;
56477;SDS011;42382;53.210;5.772;2022-10-04T23:30:40;7.10;;;3.60;;
56477;SDS011;42382;53.210;5.772;2022-10-04T23:33:10;6.95;;;3.40;;
56477;SDS011;42382;53.210;5.772;2022-10-04T23:35:42;5.03;;;3.78;;
56477;SDS011;42382;53.210;5.772;2022-10-04T23:38:10;5.13;;;3.80;;
56477;SDS011;42382;53.210;5.772;2022-10-04T23:40:40;7.57;;;4.20;;
56477;SDS011;42382;53.210;5.772;2022-10-04T23:43:07;5.85;;;3.90;;
56477;SDS011;42382;53.210;5.772;2022-10-04T23:45:55;6.30;;;3.92;;
56477;SDS011;42382;53.210;5.772;2022-10-04T23:48:23;6.13;;;3.95;;
56477;SDS011;42382;53.210;5.772;2022-10-04T23:50:51;10.55;;;3.78;;
56477;SDS011;42382;53.210;5.772;2022-10-04T23:53:24;8.93;;;3.47;;
56477;SDS011;42382;53.210;5.772;2022-10-04T23:55:55;10.13;;;3.70;;
56477;SDS011;42382;53.210;5.772;2022-10-04T23:58:34;7.55;;;4.10;;
